Nissos Mykonos — SYJZ — position and weather

sailwx.info

Track history (hours):
 
Tides and Currents Weather Stations Pressure Air Temp Water Temp Dewpoint Dewpoint Depression Visibility Wind Speed Wind Dir Waves Ship Positions

Nissos Mykonos

Last reported at 2015-Jul-31 00:33 UTC. Time now 2015-Jul-31 01:05 UTC.
Position N 37°57' E 023°38'.

Length 141 m; draft 5.2 m.

Type: Passenger vessel. MMSI: 240389000.

Date/timePositionNaut miles runAvg speedWind from/ knotsBaromVisibWave heightAir tempDewpointWater temp
2015-Jul-31 00:33N 37°57' E 023°38'0 0.0
2015-Jul-30 23:34N 37°57' E 023°38'0 0.0
2015-Jul-30 22:34N 37°57' E 023°38'0 0.0
2015-Jul-30 21:34N 37°57' E 023°38'3 2.6
2015-Jul-30 20:34N 37°54' E 023°38'2322.5
2015-Jul-30 19:34N 37°38' E 023°57'5125.3
2015-Jul-30 17:34N 37°14' E 024°54'1514.4
2015-Jul-30 16:32N 37°05' E 025°09'1111.0
2015-Jul-30 15:33N 37°06' E 025°22'1716.5
2015-Jul-30 14:33N 37°18' E 025°37'2625.7
2015-Jul-30 13:33N 37°36' E 025°60'9 8.7
2015-Jul-30 12:33N 37°39' E 026°11'2424.1
2015-Jul-30 11:33N 37°26' E 025°45'2524.9
2015-Jul-30 10:33N 37°08' E 025°23'10 9.9
2015-Jul-30 09:33N 37°09' E 025°11'6 6.2
2015-Jul-30 08:33N 37°09' E 025°03'5824.6
2015-Jul-30 06:11N 37°36' E 023°58'1524.4
2015-Jul-30 05:34N 37°43' E 023°41'1313.4
2015-Jul-30 04:33N 37°57' E 023°38'0 0.0
2015-Jul-30 03:33N 37°57' E 023°38'0 0.0
2015-Jul-30 02:33N 37°57' E 023°38'0 0.0
2015-Jul-30 01:33N 37°57' E 023°38'1313.4
2015-Jul-30 00:34N 37°44' E 023°44'5424.5
2015-Jul-29 22:20N 37°19' E 024°45'2025.8
2015-Jul-29 21:34N 37°07' E 025°05'10 9.5
2015-Jul-29 20:34N 37°10' E 025°16'8 8.5
2015-Jul-29 19:34N 37°11' E 025°27'2625.8
2015-Jul-29 18:34N 37°28' E 025°50'2118.3
2015-Jul-29 17:25N 37°39' E 026°13'1613.2
2015-Jul-29 16:11N 37°43' E 026°33'4 2.6
2015-Jul-29 14:33N 37°47' E 026°36'1210.1
2015-Jul-29 13:22N 37°42' E 026°23'1111.9
2015-Jul-29 12:28N 37°39' E 026°10'2223.9
2015-Jul-29 11:33N 37°27' E 025°47'2524.6
2015-Jul-29 10:33N 37°10' E 025°25'1211.8
2015-Jul-29 09:33N 37°08' E 025°10'9 8.9
2015-Jul-29 08:34N 37°11' E 024°59'5524.2
2015-Jul-29 06:17N 37°36' E 023°58'1723.5
2015-Jul-29 05:34N 37°45' E 023°40'1111.3
2015-Jul-29 04:33N 37°57' E 023°38'0 0.0
2015-Jul-29 03:33N 37°57' E 023°38'0 0.0
2015-Jul-29 02:33N 37°57' E 023°38'0 0.0
2015-Jul-29 01:33N 37°57' E 023°38'0 0.0
2015-Jul-29 00:33N 37°57' E 023°38'0 0.0
2015-Jul-28 23:33N 37°57' E 023°38'0 0.0
2015-Jul-28 22:33N 37°57' E 023°38'0 0.0
2015-Jul-28 21:33N 37°57' E 023°38'3 2.8
2015-Jul-28 20:34N 37°54' E 023°38'2522.7
2015-Jul-28 19:29N 37°37' E 024°00'4825.2
2015-Jul-28 17:33N 37°13' E 024°54'1514.1
2015-Jul-28 16:32N 37°05' E 025°09'1111.0
2015-Jul-28 15:33N 37°06' E 025°22'1616.2
2015-Jul-28 14:34N 37°18' E 025°36'2625.9
2015-Jul-28 13:33N 37°36' E 025°60'9 9.0
2015-Jul-28 12:33N 37°39' E 026°10'2423.9
2015-Jul-28 11:33N 37°26' E 025°46'2524.7
2015-Jul-28 10:34N 37°08' E 025°23'1010.3
2015-Jul-28 09:33N 37°09' E 025°10'6 6.2
2015-Jul-28 08:34N 37°09' E 025°03'7424.5
2015-Jul-28 05:34N 37°44' E 023°41'1313.0
2015-Jul-28 04:33N 37°57' E 023°38'0 0.0
2015-Jul-28 03:33N 37°57' E 023°38'0 0.0
2015-Jul-28 02:33N 37°57' E 023°38'0 0.0
2015-Jul-28 01:33N 37°57' E 023°38'1413.9
2015-Jul-28 00:33N 37°44' E 023°44'2623.9
2015-Jul-27 23:28N 37°31' E 024°13'2924.5
2015-Jul-27 22:18N 37°19' E 024°45'1925.7
2015-Jul-27 21:34N 37°07' E 025°05'10 9.6
2015-Jul-27 20:34N 37°11' E 025°16'8 8.3
2015-Jul-27 19:34N 37°11' E 025°26'2625.9
2015-Jul-27 18:33N 37°27' E 025°51'2015.4
2015-Jul-27 17:14N 37°39' E 026°13'8 2.0
2015-Jul-27 13:21N 37°42' E 026°22'1111.8
2015-Jul-27 12:25N 37°39' E 026°08'2124.2
2015-Jul-27 11:33N 37°27' E 025°47'2424.6
2015-Jul-27 10:34N 37°10' E 025°25'1111.3
2015-Jul-27 09:33N 37°09' E 025°11'7 7.1
2015-Jul-27 08:34N 37°10' E 025°02'6224.8
2015-Jul-27 06:05N 37°37' E 023°53'1223.2
2015-Jul-27 05:33N 37°44' E 023°41'1212.3
2015-Jul-27 04:33N 37°57' E 023°38'0 0.0
2015-Jul-27 03:33N 37°57' E 023°38'0 0.0
2015-Jul-27 02:34N 37°57' E 023°38'0 0.0
2015-Jul-27 01:34N 37°57' E 023°38'0 0.0
2015-Jul-27 00:33N 37°57' E 023°38'0 0.0
2015-Jul-26 23:33N 37°57' E 023°38'0 0.0
2015-Jul-26 22:33N 37°57' E 023°38'0 0.0
2015-Jul-26 21:33N 37°57' E 023°38'3 3.3
2015-Jul-26 20:33N 37°53' E 023°38'2523.0
2015-Jul-26 19:28N 37°36' E 024°02'4825.0
2015-Jul-26 17:33N 37°14' E 024°54'1413.9
2015-Jul-26 16:32N 37°05' E 025°09'1110.9
2015-Jul-26 15:33N 37°06' E 025°22'1616.1
2015-Jul-26 14:34N 37°18' E 025°36'2625.9
2015-Jul-26 13:33N 37°36' E 025°60'9 9.1
2015-Jul-26 12:33N 37°39' E 026°11'2423.9
2015-Jul-26 11:33N 37°26' E 025°45'2524.8
2015-Jul-26 10:33N 37°08' E 025°23'1010.0
2015-Jul-26 09:33N 37°09' E 025°11'9 8.8
2015-Jul-26 08:34N 37°11' E 024°60'7224.1
2015-Jul-26 05:34N 37°46' E 023°40'1111.1
2015-Jul-26 04:33N 37°57' E 023°38'0 0.0
2015-Jul-26 03:33N 37°57' E 023°38'0 0.0
2015-Jul-26 02:33N 37°57' E 023°38'0 0.0
2015-Jul-26 01:33N 37°57' E 023°38'0 0.0
2015-Jul-26 00:33N 37°57' E 023°38'0 0.0
2015-Jul-25 23:33N 37°57' E 023°38'0 0.0
2015-Jul-25 22:33N 37°57' E 023°38'0 0.0
2015-Jul-25 21:33N 37°57' E 023°38'3 3.1
2015-Jul-25 20:33N 37°54' E 023°38'2322.9
2015-Jul-25 19:33N 37°37' E 023°58'5025.1
2015-Jul-25 17:34N 37°14' E 024°54'1514.5
2015-Jul-25 16:33N 37°05' E 025°09'1110.7
2015-Jul-25 15:33N 37°06' E 025°22'2221.8
2015-Jul-25 14:33N 37°22' E 025°42'2724.6
2015-Jul-25 13:27N 37°39' E 026°08'4 3.9
2015-Jul-25 12:26N 37°38' E 026°03'2225.1
2015-Jul-25 11:33N 37°23' E 025°42'2323.4
2015-Jul-25 10:34N 37°06' E 025°22'1211.8
2015-Jul-25 09:33N 37°06' E 025°07'1211.6
2015-Jul-25 08:34N 37°13' E 024°56'5124.5
2015-Jul-25 06:28N 37°36' E 023°58'2123.1
2015-Jul-25 05:34N 37°49' E 023°37'8 7.8
2015-Jul-25 04:33N 37°57' E 023°38'0 0.0
2015-Jul-25 03:33N 37°57' E 023°38'0 0.0
2015-Jul-25 02:33N 37°57' E 023°38'0 0.0
2015-Jul-25 01:33N 37°57' E 023°38'0 0.0
2015-Jul-25 00:33N 37°57' E 023°38'0 0.0
2015-Jul-24 23:33N 37°57' E 023°38'0 0.0
2015-Jul-24 22:33N 37°57' E 023°38'8 7.7
2015-Jul-24 21:34N 37°49' E 023°41'5323.7
2015-Jul-24 19:20N 37°31' E 024°44'1925.2
2015-Jul-24 18:34N 37°31' E 025°08'2524.9
2015-Jul-24 17:34N 37°31' E 025°40'4619.3
2015-Jul-24 15:11N 37°45' E 026°35'4412.2
2015-Jul-24 11:33N 37°25' E 025°45'2424.2
2015-Jul-24 10:34N 37°08' E 025°23'1211.8
2015-Jul-24 09:31N 37°05' E 025°08'1313.4
2015-Jul-24 08:34N 37°13' E 024°56'6822.8
2015-Jul-24 05:34N 37°45' E 023°40'1111.2
2015-Jul-24 04:33N 37°57' E 023°38'0 0.0
2015-Jul-24 03:33N 37°57' E 023°38'0 0.0
2015-Jul-24 02:33N 37°57' E 023°38'0 0.0
2015-Jul-24 01:33N 37°57' E 023°38'0 0.0
2015-Jul-24 00:33N 37°57' E 023°38'0 0.0
2015-Jul-23 23:33N 37°57' E 023°38'0 0.0
2015-Jul-23 22:33N 37°57' E 023°38'0 0.0
2015-Jul-23 21:33N 37°57' E 023°38'3 2.7
2015-Jul-23 20:33N 37°54' E 023°38'2422.9
2015-Jul-23 19:30N 37°37' E 023°60'4925.2
2015-Jul-23 17:34N 37°13' E 024°54'1413.9
2015-Jul-23 16:31N 37°05' E 025°09'1111.1
2015-Jul-23 15:33N 37°06' E 025°22'1615.6
2015-Jul-23 14:33N 37°18' E 025°36'11 3.6
2015-Jul-23 11:33N 37°26' E 025°45'2424.0
2015-Jul-23 10:34N 37°09' E 025°24'1110.5
2015-Jul-23 09:33N 37°09' E 025°10'1010.3
2015-Jul-23 08:33N 37°11' E 024°58'7023.5
2015-Jul-23 05:33N 37°45' E 023°40'1211.8
2015-Jul-23 04:33N 37°57' E 023°38'0 0.0
2015-Jul-23 03:33N 37°57' E 023°38'0 0.0
2015-Jul-23 02:33N 37°57' E 023°38'0 0.0
2015-Jul-23 01:33N 37°57' E 023°38'1414.5
2015-Jul-23 00:34N 37°43' E 023°45'5424.1
2015-Jul-22 22:19N 37°19' E 024°45'1925.7
2015-Jul-22 21:34N 37°07' E 025°05'9 9.3
2015-Jul-22 20:34N 37°10' E 025°16'8 8.2
2015-Jul-22 19:33N 37°11' E 025°26'2625.9
2015-Jul-22 18:34N 37°28' E 025°50'2117.1
2015-Jul-22 17:21N 37°39' E 026°13'18 6.4
2015-Jul-22 14:27N 37°45' E 026°35'1110.0
2015-Jul-22 13:22N 37°42' E 026°21'1012.1
2015-Jul-22 12:32N 37°39' E 026°09'2223.0
2015-Jul-22 11:33N 37°27' E 025°46'2424.0
2015-Jul-22 10:33N 37°10' E 025°25'1212.2
2015-Jul-22 09:33N 37°08' E 025°09'1110.8
2015-Jul-22 08:34N 37°13' E 024°57'6923.0
2015-Jul-22 05:34N 37°45' E 023°40'1212.2
2015-Jul-22 04:33N 37°57' E 023°38'0 0.0
2015-Jul-22 03:33N 37°57' E 023°38'0 0.0
2015-Jul-22 02:34N 37°57' E 023°38'0 0.0
2015-Jul-22 01:33N 37°57' E 023°38'0 0.0
2015-Jul-22 00:33N 37°57' E 023°38'0 0.0
2015-Jul-21 23:33N 37°57' E 023°38'0 0.0
2015-Jul-21 22:33N 37°57' E 023°38'0 0.0
2015-Jul-21 21:33N 37°57' E 023°38'3 3.1
2015-Jul-21 20:33N 37°54' E 023°38'7424.7
2015-Jul-21 17:33N 37°13' E 024°56'1312.1
2015-Jul-21 16:30N 37°05' E 025°09'1111.3
2015-Jul-21 15:33N 37°06' E 025°22'1716.9
2015-Jul-21 14:33N 37°19' E 025°37'2525.4
2015-Jul-21 13:33N 37°36' E 025°60'8 7.2
2015-Jul-21 12:29N 37°39' E 026°09'2223.7
2015-Jul-21 11:34N 37°27' E 025°46'2524.5
2015-Jul-21 10:33N 37°09' E 025°24'1110.9
2015-Jul-21 09:33N 37°09' E 025°11'8 8.0
2015-Jul-21 08:34N 37°10' E 025°01'7224.1
2015-Jul-21 05:34N 37°44' E 023°40'1312.9
2015-Jul-21 04:33N 37°57' E 023°38'0 0.0
2015-Jul-21 03:33N 37°57' E 023°38'0 0.0
2015-Jul-21 02:33N 37°57' E 023°38'0 0.0
2015-Jul-21 01:33N 37°57' E 023°38'1717.2
2015-Jul-21 00:33N 37°41' E 023°47'  
Track history (hours):
 
Tides and Currents Weather Stations Pressure Air Temp Water Temp Dewpoint Dewpoint Depression Visibility Wind Speed Wind Dir Waves Ship Positions

Nissos Mykonos

Last reported at 2015-Jul-31 00:33 UTC. Time now 2015-Jul-31 01:05 UTC.
Position N 37°57' E 023°38'.

Length 141 m; draft 5.2 m.

Type: Passenger vessel. MMSI: 240389000.

Date/timePositionNaut miles runAvg speedWind from/ knotsBaromVisibWave heightAir tempDewpointWater temp
2015-Jul-31 00:33N 37°57' E 023°38'0 0.0
2015-Jul-30 23:34N 37°57' E 023°38'0 0.0
2015-Jul-30 22:34N 37°57' E 023°38'0 0.0
2015-Jul-30 21:34N 37°57' E 023°38'3 2.6
2015-Jul-30 20:34N 37°54' E 023°38'2322.5
2015-Jul-30 19:34N 37°38' E 023°57'5125.3
2015-Jul-30 17:34N 37°14' E 024°54'1514.4
2015-Jul-30 16:32N 37°05' E 025°09'1111.0
2015-Jul-30 15:33N 37°06' E 025°22'1716.5
2015-Jul-30 14:33N 37°18' E 025°37'2625.7
2015-Jul-30 13:33N 37°36' E 025°60'9 8.7
2015-Jul-30 12:33N 37°39' E 026°11'2424.1
2015-Jul-30 11:33N 37°26' E 025°45'2524.9
2015-Jul-30 10:33N 37°08' E 025°23'10 9.9
2015-Jul-30 09:33N 37°09' E 025°11'6 6.2
2015-Jul-30 08:33N 37°09' E 025°03'5824.6
2015-Jul-30 06:11N 37°36' E 023°58'1524.4
2015-Jul-30 05:34N 37°43' E 023°41'1313.4
2015-Jul-30 04:33N 37°57' E 023°38'0 0.0
2015-Jul-30 03:33N 37°57' E 023°38'0 0.0
2015-Jul-30 02:33N 37°57' E 023°38'0 0.0
2015-Jul-30 01:33N 37°57' E 023°38'1313.4
2015-Jul-30 00:34N 37°44' E 023°44'5424.5
2015-Jul-29 22:20N 37°19' E 024°45'2025.8
2015-Jul-29 21:34N 37°07' E 025°05'10 9.5
2015-Jul-29 20:34N 37°10' E 025°16'8 8.5
2015-Jul-29 19:34N 37°11' E 025°27'2625.8
2015-Jul-29 18:34N 37°28' E 025°50'2118.3
2015-Jul-29 17:25N 37°39' E 026°13'1613.2
2015-Jul-29 16:11N 37°43' E 026°33'4 2.6
2015-Jul-29 14:33N 37°47' E 026°36'1210.1
2015-Jul-29 13:22N 37°42' E 026°23'1111.9
2015-Jul-29 12:28N 37°39' E 026°10'2223.9
2015-Jul-29 11:33N 37°27' E 025°47'2524.6
2015-Jul-29 10:33N 37°10' E 025°25'1211.8
2015-Jul-29 09:33N 37°08' E 025°10'9 8.9
2015-Jul-29 08:34N 37°11' E 024°59'5524.2
2015-Jul-29 06:17N 37°36' E 023°58'1723.5
2015-Jul-29 05:34N 37°45' E 023°40'1111.3
2015-Jul-29 04:33N 37°57' E 023°38'0 0.0
2015-Jul-29 03:33N 37°57' E 023°38'0 0.0
2015-Jul-29 02:33N 37°57' E 023°38'0 0.0
2015-Jul-29 01:33N 37°57' E 023°38'0 0.0
2015-Jul-29 00:33N 37°57' E 023°38'0 0.0
2015-Jul-28 23:33N 37°57' E 023°38'0 0.0
2015-Jul-28 22:33N 37°57' E 023°38'0 0.0
2015-Jul-28 21:33N 37°57' E 023°38'3 2.8
2015-Jul-28 20:34N 37°54' E 023°38'2522.7
2015-Jul-28 19:29N 37°37' E 024°00'4825.2
2015-Jul-28 17:33N 37°13' E 024°54'1514.1
2015-Jul-28 16:32N 37°05' E 025°09'1111.0
2015-Jul-28 15:33N 37°06' E 025°22'1616.2
2015-Jul-28 14:34N 37°18' E 025°36'2625.9
2015-Jul-28 13:33N 37°36' E 025°60'9 9.0
2015-Jul-28 12:33N 37°39' E 026°10'2423.9
2015-Jul-28 11:33N 37°26' E 025°46'2524.7
2015-Jul-28 10:34N 37°08' E 025°23'1010.3
2015-Jul-28 09:33N 37°09' E 025°10'6 6.2
2015-Jul-28 08:34N 37°09' E 025°03'7424.5
2015-Jul-28 05:34N 37°44' E 023°41'1313.0
2015-Jul-28 04:33N 37°57' E 023°38'0 0.0
2015-Jul-28 03:33N 37°57' E 023°38'0 0.0
2015-Jul-28 02:33N 37°57' E 023°38'0 0.0
2015-Jul-28 01:33N 37°57' E 023°38'1413.9
2015-Jul-28 00:33N 37°44' E 023°44'2623.9
2015-Jul-27 23:28N 37°31' E 024°13'2924.5
2015-Jul-27 22:18N 37°19' E 024°45'1925.7
2015-Jul-27 21:34N 37°07' E 025°05'10 9.6
2015-Jul-27 20:34N 37°11' E 025°16'8 8.3
2015-Jul-27 19:34N 37°11' E 025°26'2625.9
2015-Jul-27 18:33N 37°27' E 025°51'2015.4
2015-Jul-27 17:14N 37°39' E 026°13'8 2.0
2015-Jul-27 13:21N 37°42' E 026°22'1111.8
2015-Jul-27 12:25N 37°39' E 026°08'2124.2
2015-Jul-27 11:33N 37°27' E 025°47'2424.6
2015-Jul-27 10:34N 37°10' E 025°25'1111.3
2015-Jul-27 09:33N 37°09' E 025°11'7 7.1
2015-Jul-27 08:34N 37°10' E 025°02'6224.8
2015-Jul-27 06:05N 37°37' E 023°53'1223.2
2015-Jul-27 05:33N 37°44' E 023°41'1212.3
2015-Jul-27 04:33N 37°57' E 023°38'0 0.0
2015-Jul-27 03:33N 37°57' E 023°38'0 0.0
2015-Jul-27 02:34N 37°57' E 023°38'0 0.0
2015-Jul-27 01:34N 37°57' E 023°38'0 0.0
2015-Jul-27 00:33N 37°57' E 023°38'0 0.0
2015-Jul-26 23:33N 37°57' E 023°38'0 0.0
2015-Jul-26 22:33N 37°57' E 023°38'0 0.0
2015-Jul-26 21:33N 37°57' E 023°38'3 3.3
2015-Jul-26 20:33N 37°53' E 023°38'2523.0
2015-Jul-26 19:28N 37°36' E 024°02'4825.0
2015-Jul-26 17:33N 37°14' E 024°54'1413.9
2015-Jul-26 16:32N 37°05' E 025°09'1110.9
2015-Jul-26 15:33N 37°06' E 025°22'1616.1
2015-Jul-26 14:34N 37°18' E 025°36'2625.9
2015-Jul-26 13:33N 37°36' E 025°60'9 9.1
2015-Jul-26 12:33N 37°39' E 026°11'2423.9
2015-Jul-26 11:33N 37°26' E 025°45'2524.8
2015-Jul-26 10:33N 37°08' E 025°23'1010.0
2015-Jul-26 09:33N 37°09' E 025°11'9 8.8
2015-Jul-26 08:34N 37°11' E 024°60'7224.1
2015-Jul-26 05:34N 37°46' E 023°40'1111.1
2015-Jul-26 04:33N 37°57' E 023°38'0 0.0
2015-Jul-26 03:33N 37°57' E 023°38'0 0.0
2015-Jul-26 02:33N 37°57' E 023°38'0 0.0
2015-Jul-26 01:33N 37°57' E 023°38'0 0.0
2015-Jul-26 00:33N 37°57' E 023°38'0 0.0
2015-Jul-25 23:33N 37°57' E 023°38'0 0.0
2015-Jul-25 22:33N 37°57' E 023°38'0 0.0
2015-Jul-25 21:33N 37°57' E 023°38'3 3.1
2015-Jul-25 20:33N 37°54' E 023°38'2322.9
2015-Jul-25 19:33N 37°37' E 023°58'5025.1
2015-Jul-25 17:34N 37°14' E 024°54'1514.5
2015-Jul-25 16:33N 37°05' E 025°09'1110.7
2015-Jul-25 15:33N 37°06' E 025°22'2221.8
2015-Jul-25 14:33N 37°22' E 025°42'2724.6
2015-Jul-25 13:27N 37°39' E 026°08'4 3.9
2015-Jul-25 12:26N 37°38' E 026°03'2225.1
2015-Jul-25 11:33N 37°23' E 025°42'2323.4
2015-Jul-25 10:34N 37°06' E 025°22'1211.8
2015-Jul-25 09:33N 37°06' E 025°07'1211.6
2015-Jul-25 08:34N 37°13' E 024°56'5124.5
2015-Jul-25 06:28N 37°36' E 023°58'2123.1
2015-Jul-25 05:34N 37°49' E 023°37'8 7.8
2015-Jul-25 04:33N 37°57' E 023°38'0 0.0
2015-Jul-25 03:33N 37°57' E 023°38'0 0.0
2015-Jul-25 02:33N 37°57' E 023°38'0 0.0
2015-Jul-25 01:33N 37°57' E 023°38'0 0.0
2015-Jul-25 00:33N 37°57' E 023°38'0 0.0
2015-Jul-24 23:33N 37°57' E 023°38'0 0.0
2015-Jul-24 22:33N 37°57' E 023°38'8 7.7
2015-Jul-24 21:34N 37°49' E 023°41'5323.7
2015-Jul-24 19:20N 37°31' E 024°44'1925.2
2015-Jul-24 18:34N 37°31' E 025°08'2524.9
2015-Jul-24 17:34N 37°31' E 025°40'4619.3
2015-Jul-24 15:11N 37°45' E 026°35'4412.2
2015-Jul-24 11:33N 37°25' E 025°45'2424.2
2015-Jul-24 10:34N 37°08' E 025°23'1211.8
2015-Jul-24 09:31N 37°05' E 025°08'1313.4
2015-Jul-24 08:34N 37°13' E 024°56'6822.8
2015-Jul-24 05:34N 37°45' E 023°40'1111.2
2015-Jul-24 04:33N 37°57' E 023°38'0 0.0
2015-Jul-24 03:33N 37°57' E 023°38'0 0.0
2015-Jul-24 02:33N 37°57' E 023°38'0 0.0
2015-Jul-24 01:33N 37°57' E 023°38'0 0.0
2015-Jul-24 00:33N 37°57' E 023°38'0 0.0
2015-Jul-23 23:33N 37°57' E 023°38'0 0.0
2015-Jul-23 22:33N 37°57' E 023°38'0 0.0
2015-Jul-23 21:33N 37°57' E 023°38'3 2.7
2015-Jul-23 20:33N 37°54' E 023°38'2422.9
2015-Jul-23 19:30N 37°37' E 023°60'4925.2
2015-Jul-23 17:34N 37°13' E 024°54'1413.9
2015-Jul-23 16:31N 37°05' E 025°09'1111.1
2015-Jul-23 15:33N 37°06' E 025°22'1615.6
2015-Jul-23 14:33N 37°18' E 025°36'11 3.6
2015-Jul-23 11:33N 37°26' E 025°45'2424.0
2015-Jul-23 10:34N 37°09' E 025°24'1110.5
2015-Jul-23 09:33N 37°09' E 025°10'1010.3
2015-Jul-23 08:33N 37°11' E 024°58'7023.5
2015-Jul-23 05:33N 37°45' E 023°40'1211.8
2015-Jul-23 04:33N 37°57' E 023°38'0 0.0
2015-Jul-23 03:33N 37°57' E 023°38'0 0.0
2015-Jul-23 02:33N 37°57' E 023°38'0 0.0
2015-Jul-23 01:33N 37°57' E 023°38'1414.5
2015-Jul-23 00:34N 37°43' E 023°45'5424.1
2015-Jul-22 22:19N 37°19' E 024°45'1925.7
2015-Jul-22 21:34N 37°07' E 025°05'9 9.3
2015-Jul-22 20:34N 37°10' E 025°16'8 8.2
2015-Jul-22 19:33N 37°11' E 025°26'2625.9
2015-Jul-22 18:34N 37°28' E 025°50'2117.1
2015-Jul-22 17:21N 37°39' E 026°13'18 6.4
2015-Jul-22 14:27N 37°45' E 026°35'1110.0
2015-Jul-22 13:22N 37°42' E 026°21'1012.1
2015-Jul-22 12:32N 37°39' E 026°09'2223.0
2015-Jul-22 11:33N 37°27' E 025°46'2424.0
2015-Jul-22 10:33N 37°10' E 025°25'1212.2
2015-Jul-22 09:33N 37°08' E 025°09'1110.8
2015-Jul-22 08:34N 37°13' E 024°57'6923.0
2015-Jul-22 05:34N 37°45' E 023°40'1212.2
2015-Jul-22 04:33N 37°57' E 023°38'0 0.0
2015-Jul-22 03:33N 37°57' E 023°38'0 0.0
2015-Jul-22 02:34N 37°57' E 023°38'0 0.0
2015-Jul-22 01:33N 37°57' E 023°38'0 0.0
2015-Jul-22 00:33N 37°57' E 023°38'0 0.0
2015-Jul-21 23:33N 37°57' E 023°38'0 0.0
2015-Jul-21 22:33N 37°57' E 023°38'0 0.0
2015-Jul-21 21:33N 37°57' E 023°38'3 3.1
2015-Jul-21 20:33N 37°54' E 023°38'7424.7
2015-Jul-21 17:33N 37°13' E 024°56'1312.1
2015-Jul-21 16:30N 37°05' E 025°09'1111.3
2015-Jul-21 15:33N 37°06' E 025°22'1716.9
2015-Jul-21 14:33N 37°19' E 025°37'2525.4
2015-Jul-21 13:33N 37°36' E 025°60'8 7.2
2015-Jul-21 12:29N 37°39' E 026°09'2223.7
2015-Jul-21 11:34N 37°27' E 025°46'2524.5
2015-Jul-21 10:33N 37°09' E 025°24'1110.9
2015-Jul-21 09:33N 37°09' E 025°11'8 8.0
2015-Jul-21 08:34N 37°10' E 025°01'7224.1
2015-Jul-21 05:34N 37°44' E 023°40'1312.9
2015-Jul-21 04:33N 37°57' E 023°38'0 0.0
2015-Jul-21 03:33N 37°57' E 023°38'0 0.0
2015-Jul-21 02:33N 37°57' E 023°38'0 0.0
2015-Jul-21 01:33N 37°57' E 023°38'1717.2
2015-Jul-21 00:33N 37°41' E 023°47'  

Dump ship's entire track history